createdAt,value
2022-07-28T00:02:20.102Z,16.60
2022-07-28T00:04:50.401Z,16.56
2022-07-28T00:07:20.608Z,16.58
2022-07-28T00:09:50.818Z,16.55
2022-07-28T00:12:21.507Z,16.55
2022-07-28T00:14:51.872Z,16.53
2022-07-28T00:17:25.178Z,16.49
2022-07-28T00:19:55.479Z,16.45
2022-07-28T00:22:25.929Z,16.42
2022-07-28T00:24:56.187Z,16.36
2022-07-28T00:27:26.569Z,16.29
2022-07-28T00:29:56.785Z,16.27
2022-07-28T00:32:29.704Z,16.26
2022-07-28T00:35:00.660Z,16.21
2022-07-28T00:37:32.661Z,16.20
2022-07-28T00:40:02.875Z,16.14
2022-07-28T00:42:33.601Z,16.14
2022-07-28T00:45:03.763Z,16.09
2022-07-28T00:47:36.673Z,16.07
2022-07-28T00:50:08.593Z,16.04
2022-07-28T00:52:39.251Z,16.04
2022-07-28T00:55:10.724Z,16.02
2022-07-28T00:57:40.993Z,15.96
2022-07-28T01:00:13.892Z,15.89
2022-07-28T01:02:48.197Z,15.87
2022-07-28T01:05:44.108Z,15.84
2022-07-28T01:08:19.255Z,15.81
2022-07-28T01:11:02.483Z,15.78
2022-07-28T01:13:42.106Z,15.74
2022-07-28T01:16:12.481Z,15.70
2022-07-28T01:18:57.298Z,15.68
2022-07-28T01:21:33.628Z,15.68
2022-07-28T01:24:25.105Z,15.64
2022-07-28T01:27:01.969Z,15.59
2022-07-28T01:29:51.953Z,15.58
2022-07-28T01:32:28.594Z,15.51
2022-07-28T01:35:05.186Z,15.48
2022-07-28T01:37:43.462Z,15.47
2022-07-28T01:40:17.842Z,15.45
2022-07-28T01:42:51.323Z,15.39
2022-07-28T01:45:23.926Z,15.36
2022-07-28T01:48:00.459Z,15.37
2022-07-28T01:50:33.186Z,15.34
2022-07-28T01:53:04.967Z,15.32
2022-07-28T01:55:37.239Z,15.29
2022-07-28T01:58:08.030Z,15.28
2022-07-28T02:00:39.695Z,15.25
2022-07-28T02:03:14.034Z,15.22
2022-07-28T02:05:46.789Z,15.20
2022-07-28T02:08:19.191Z,15.16
2022-07-28T02:11:11.292Z,15.16
2022-07-28T02:13:42.520Z,15.13
2022-07-28T02:16:15.195Z,15.11
2022-07-28T02:18:49.640Z,15.09
2022-07-28T02:21:21.454Z,15.03
2022-07-28T02:23:53.879Z,15.05
2022-07-28T02:26:32.133Z,15.05
2022-07-28T02:29:06.861Z,15.05
2022-07-28T02:31:46.971Z,15.02
2022-07-28T02:34:27.942Z,14.98
2022-07-28T02:37:02.118Z,14.94
2022-07-28T02:39:41.882Z,14.94
2022-07-28T02:42:26.262Z,14.93
2022-07-28T02:45:02.477Z,14.89
2022-07-28T02:47:42.465Z,14.87
2022-07-28T02:50:18.444Z,14.84
2022-07-28T02:52:49.937Z,14.86
2022-07-28T02:55:21.336Z,14.84
2022-07-28T02:57:56.626Z,14.86
2022-07-28T03:00:28.325Z,14.81
2022-07-28T03:02:59.812Z,14.78
2022-07-28T03:05:33.505Z,14.73
2022-07-28T03:08:03.919Z,14.69
2022-07-28T03:10:34.958Z,14.67
2022-07-28T03:13:07.303Z,14.63
2022-07-28T03:15:40.339Z,14.64
2022-07-28T03:18:11.035Z,14.64
2022-07-28T03:20:43.916Z,14.63
2022-07-28T03:23:14.706Z,14.63
2022-07-28T03:25:51.077Z,14.58
2022-07-28T03:28:24.582Z,14.54
2022-07-28T03:31:00.463Z,14.51
2022-07-28T03:33:31.317Z,14.46
2022-07-28T03:36:11.809Z,14.49
2022-07-28T03:38:48.264Z,14.48
2022-07-28T03:41:19.759Z,14.50
2022-07-28T03:43:50.956Z,14.49
2022-07-28T03:46:21.663Z,14.44
2022-07-28T03:48:52.150Z,14.43
2022-07-28T03:51:25.682Z,14.42
2022-07-28T03:53:56.077Z,14.40
2022-07-28T03:56:26.180Z,14.43
2022-07-28T03:58:56.353Z,14.39
2022-07-28T04:01:26.699Z,14.41
2022-07-28T04:03:56.979Z,14.42
2022-07-28T04:06:29.777Z,14.45
2022-07-28T04:08:59.972Z,14.52
2022-07-28T04:11:30.214Z,14.52
2022-07-28T04:14:00.511Z,14.48
2022-07-28T04:16:30.850Z,14.53
2022-07-28T04:19:01.080Z,14.50
2022-07-28T04:21:33.905Z,14.53
2022-07-28T04:24:04.088Z,14.55
2022-07-28T04:26:34.328Z,14.55
2022-07-28T04:29:04.522Z,14.59
2022-07-28T04:31:34.991Z,14.62
2022-07-28T04:34:05.132Z,14.66
2022-07-28T04:36:42.195Z,14.69
2022-07-28T04:39:14.015Z,14.76
2022-07-28T04:41:44.163Z,14.84
2022-07-28T04:44:15.459Z,14.90
2022-07-28T04:46:45.903Z,14.97
2022-07-28T04:49:16.183Z,15.04
2022-07-28T04:51:50.681Z,15.12
2022-07-28T04:54:26.357Z,15.22
2022-07-28T04:56:56.959Z,15.31
2022-07-28T04:59:27.335Z,15.41
2022-07-28T05:01:59.958Z,15.51
2022-07-28T05:04:30.232Z,15.62
2022-07-28T05:07:11.863Z,15.74
2022-07-28T05:09:43.065Z,15.81
2022-07-28T05:12:13.584Z,15.92
2022-07-28T05:14:43.896Z,16.04
2022-07-28T05:17:14.140Z,16.13
2022-07-28T05:19:44.389Z,16.27
2022-07-28T05:22:17.557Z,16.37
2022-07-28T05:24:47.737Z,16.43
2022-07-28T05:27:17.932Z,16.51
2022-07-28T05:29:48.572Z,16.56
2022-07-28T05:32:18.978Z,16.62
2022-07-28T05:34:49.360Z,16.74
2022-07-28T05:37:22.675Z,16.86
2022-07-28T05:39:53.112Z,16.92
2022-07-28T05:42:23.472Z,17.09
2022-07-28T05:44:53.693Z,17.31
2022-07-28T05:47:24.326Z,17.46
2022-07-28T05:49:54.505Z,17.53
2022-07-28T05:52:28.021Z,17.68
2022-07-28T05:54:59.182Z,17.70
2022-07-28T05:57:32.439Z,17.81
2022-07-28T06:00:06.403Z,17.94
2022-07-28T06:02:46.387Z,18.06
2022-07-28T06:05:17.571Z,18.16
2022-07-28T06:08:00.171Z,18.24
2022-07-28T06:10:58.577Z,18.27
2022-07-28T06:13:32.750Z,18.27
2022-07-28T06:16:12.970Z,18.34
2022-07-28T06:18:49.350Z,18.55
2022-07-28T06:21:22.589Z,18.90
2022-07-28T06:23:58.312Z,19.13
2022-07-28T06:26:32.916Z,19.27
2022-07-28T06:29:07.007Z,19.39
2022-07-28T06:31:37.644Z,19.45
2022-07-28T06:34:07.717Z,19.58
2022-07-28T06:36:38.032Z,19.61
2022-07-28T06:39:11.083Z,19.66
2022-07-28T06:41:43.480Z,19.78
2022-07-28T06:44:14.173Z,19.89
2022-07-28T06:46:44.782Z,20.06
2022-07-28T06:49:15.249Z,20.26
2022-07-28T06:51:45.842Z,20.50
2022-07-28T06:54:18.972Z,20.69
2022-07-28T06:56:52.110Z,20.96
2022-07-28T06:59:22.945Z,21.34
2022-07-28T07:01:53.270Z,21.52
2022-07-28T07:04:23.570Z,21.60
2022-07-28T07:06:53.777Z,21.69
2022-07-28T07:09:26.665Z,21.74
2022-07-28T07:11:56.972Z,21.85
2022-07-28T07:14:30.406Z,21.98
2022-07-28T07:17:00.685Z,22.18
2022-07-28T07:19:30.887Z,22.38
2022-07-28T07:22:01.089Z,22.63
2022-07-28T07:24:34.320Z,22.84
2022-07-28T07:27:04.558Z,23.05
2022-07-28T07:29:34.823Z,23.20
2022-07-28T07:32:10.173Z,23.50
2022-07-28T07:34:42.147Z,23.82
2022-07-28T07:37:14.729Z,24.03
2022-07-28T07:39:47.466Z,24.14
2022-07-28T07:42:18.021Z,24.40
2022-07-28T07:44:50.200Z,24.62
2022-07-28T07:47:21.915Z,24.90
2022-07-28T07:49:52.537Z,25.16
2022-07-28T07:52:22.767Z,25.28
2022-07-28T07:54:55.656Z,25.52
2022-07-28T07:57:25.856Z,25.79
2022-07-28T07:59:56.051Z,25.99
2022-07-28T08:02:26.246Z,26.21
2022-07-28T08:04:56.560Z,26.40
2022-07-28T08:07:27.076Z,26.52
2022-07-28T08:09:59.843Z,26.56
2022-07-28T08:12:30.241Z,26.42
2022-07-28T08:15:00.171Z,26.73
2022-07-28T08:17:30.483Z,26.93
2022-07-28T08:20:00.428Z,27.07
2022-07-28T08:22:30.636Z,27.20
2022-07-28T08:25:03.899Z,27.38
2022-07-28T08:27:34.067Z,27.46
2022-07-28T08:30:04.453Z,27.71
2022-07-28T08:32:34.986Z,27.87
2022-07-28T08:35:31.616Z,28.04
2022-07-28T08:37:55.086Z,28.38
2022-07-28T08:40:28.235Z,29.05
2022-07-28T08:43:04.728Z,29.77
2022-07-28T08:45:39.385Z,30.60
2022-07-28T08:48:13.667Z,31.17
2022-07-28T08:50:45.346Z,31.93
2022-07-28T08:53:17.908Z,32.53
2022-07-28T08:55:52.011Z,32.79
2022-07-28T08:58:22.944Z,33.15
2022-07-28T09:00:53.327Z,33.46
2022-07-28T09:03:23.936Z,33.92
2022-07-28T09:05:54.456Z,33.95
2022-07-28T09:08:24.878Z,34.25
2022-07-28T09:10:57.920Z,34.27
2022-07-28T09:13:28.195Z,34.60
2022-07-28T09:15:59.041Z,34.66
2022-07-28T09:18:29.509Z,34.80
2022-07-28T09:20:59.782Z,34.81
2022-07-28T09:23:46.272Z,35.16
2022-07-28T09:26:20.808Z,35.40
2022-07-28T09:28:54.135Z,35.60
2022-07-28T09:31:26.282Z,35.73
2022-07-28T09:34:03.164Z,35.68
2022-07-28T09:36:40.440Z,35.78
2022-07-28T09:39:11.207Z,35.50
2022-07-28T09:41:58.061Z,35.12
2022-07-28T09:44:29.794Z,35.36
2022-07-28T09:47:00.406Z,35.62
2022-07-28T09:49:45.240Z,35.31
2022-07-28T09:52:16.010Z,35.19
2022-07-28T09:55:03.404Z,34.96
2022-07-28T09:57:38.029Z,35.18
2022-07-28T10:00:14.233Z,35.39
2022-07-28T10:02:53.233Z,35.50
2022-07-28T10:05:23.656Z,35.70
2022-07-28T10:07:53.963Z,36.01
2022-07-28T10:10:24.739Z,36.00
2022-07-28T10:13:08.640Z,36.02
2022-07-28T10:15:51.337Z,36.10
2022-07-28T10:18:21.610Z,35.79
2022-07-28T10:20:52.045Z,35.46
2022-07-28T10:23:23.480Z,35.07
2022-07-28T10:25:55.389Z,35.11
2022-07-28T10:28:28.824Z,35.48
2022-07-28T10:31:02.432Z,35.39
2022-07-28T10:33:35.511Z,35.60
2022-07-28T10:36:06.493Z,35.51
2022-07-28T10:38:38.855Z,35.62
2022-07-28T10:41:11.839Z,35.92
2022-07-28T10:43:45.652Z,35.65
2022-07-28T10:46:17.074Z,35.68
2022-07-28T10:48:47.964Z,35.95
2022-07-28T10:51:18.474Z,36.10
2022-07-28T10:53:56.146Z,36.21
2022-07-28T10:56:41.896Z,36.20
2022-07-28T10:59:32.183Z,36.62
2022-07-28T11:02:02.281Z,36.99
2022-07-28T11:05:01.993Z,37.25
2022-07-28T11:07:42.413Z,37.20
2022-07-28T11:10:20.564Z,37.42
2022-07-28T11:12:56.189Z,37.79
2022-07-28T11:15:35.783Z,38.23
2022-07-28T11:18:09.606Z,38.38
2022-07-28T11:21:16.613Z,38.53
2022-07-28T11:23:58.376Z,38.54
2022-07-28T11:26:39.829Z,38.69
2022-07-28T11:29:27.610Z,38.95
2022-07-28T11:32:08.487Z,39.40
2022-07-28T11:35:11.335Z,39.71
2022-07-28T11:38:15.774Z,39.91
2022-07-28T11:40:48.081Z,40.08
2022-07-28T11:43:37.000Z,40.24
2022-07-28T11:46:41.140Z,40.20
2022-07-28T11:49:31.865Z,40.46
2022-07-28T11:52:20.887Z,40.79
2022-07-28T11:54:55.155Z,40.88
2022-07-28T11:57:26.937Z,40.16
2022-07-28T12:00:01.092Z,40.38
2022-07-28T12:02:34.690Z,40.28
2022-07-28T12:05:15.735Z,40.50
2022-07-28T12:07:49.902Z,40.43
2022-07-28T12:10:55.258Z,40.55
2022-07-28T12:13:30.935Z,40.44
2022-07-28T12:16:01.187Z,40.29
2022-07-28T12:18:32.033Z,40.47
2022-07-28T12:21:05.472Z,40.52
2022-07-28T12:23:38.929Z,40.09
2022-07-28T12:26:15.671Z,40.76
2022-07-28T12:28:56.041Z,40.93
2022-07-28T12:31:30.096Z,41.17
2022-07-28T12:34:00.397Z,41.46
2022-07-28T12:36:33.419Z,41.95
2022-07-28T12:39:09.480Z,42.21
2022-07-28T12:41:42.928Z,42.64
2022-07-28T12:44:14.301Z,43.00
2022-07-28T12:46:49.381Z,43.18
2022-07-28T12:49:25.640Z,43.20
2022-07-28T12:52:00.830Z,43.38
2022-07-28T12:54:39.473Z,43.48
2022-07-28T12:57:09.842Z,43.67
2022-07-28T12:59:42.473Z,43.79
2022-07-28T13:02:13.071Z,43.90
2022-07-28T13:04:47.099Z,44.01
2022-07-28T13:07:30.421Z,43.84
2022-07-28T13:10:06.834Z,44.12
2022-07-28T13:12:43.715Z,44.16
2022-07-28T13:15:19.275Z,43.98
2022-07-28T13:17:57.189Z,43.82
2022-07-28T13:20:28.166Z,43.97
2022-07-28T13:23:01.207Z,43.57
2022-07-28T13:25:31.688Z,43.44
2022-07-28T13:28:02.743Z,43.29
2022-07-28T13:30:34.909Z,42.50
2022-07-28T13:33:05.143Z,42.51
2022-07-28T13:35:35.337Z,42.31
2022-07-28T13:38:08.252Z,42.32
2022-07-28T13:40:38.985Z,42.20
2022-07-28T13:43:11.182Z,42.38
2022-07-28T13:45:41.716Z,42.43
2022-07-28T13:48:12.887Z,42.26
2022-07-28T13:50:43.104Z,42.15
2022-07-28T13:53:30.862Z,42.57
2022-07-28T13:56:01.332Z,42.89
2022-07-28T13:58:33.860Z,43.25
2022-07-28T14:01:04.885Z,43.44
2022-07-28T14:03:55.975Z,43.41
2022-07-28T14:06:26.317Z,43.05
2022-07-28T14:09:04.290Z,43.08
2022-07-28T14:11:36.458Z,42.82
2022-07-28T14:14:07.036Z,42.66
2022-07-28T14:16:37.350Z,42.67
2022-07-28T14:19:07.656Z,42.61
2022-07-28T14:21:37.917Z,42.45
2022-07-28T14:24:12.290Z,42.46
2022-07-28T14:26:42.758Z,42.67
2022-07-28T14:29:13.004Z,42.70
2022-07-28T14:31:43.572Z,42.15
2022-07-28T14:34:16.858Z,41.79
2022-07-28T14:36:47.447Z,41.45
2022-07-28T14:39:25.241Z,41.21
2022-07-28T14:41:55.481Z,41.27
2022-07-28T14:44:26.800Z,41.18
2022-07-28T14:46:57.344Z,41.05
2022-07-28T14:49:28.180Z,40.67
2022-07-28T14:51:59.555Z,40.64
2022-07-28T14:54:32.865Z,40.46
2022-07-28T14:57:03.253Z,40.21
2022-07-28T14:59:33.686Z,39.65
2022-07-28T15:02:09.265Z,39.82
2022-07-28T15:04:39.623Z,39.93
2022-07-28T15:07:12.056Z,39.43
2022-07-28T15:09:50.127Z,39.30
2022-07-28T15:12:24.341Z,39.08
2022-07-28T15:14:54.513Z,38.83
2022-07-28T15:17:24.768Z,38.43
2022-07-28T15:19:56.318Z,38.22
2022-07-28T15:22:26.769Z,37.66
2022-07-28T15:24:59.968Z,37.43
2022-07-28T15:27:33.748Z,37.14
2022-07-28T15:30:04.427Z,36.79
2022-07-28T15:32:54.210Z,36.00
2022-07-28T15:35:27.830Z,35.37
2022-07-28T15:37:59.207Z,34.96
2022-07-28T15:40:32.377Z,34.73
2022-07-28T15:43:02.810Z,34.46
2022-07-28T15:45:33.408Z,34.04
2022-07-28T15:48:04.885Z,33.55
2022-07-28T15:50:35.286Z,33.10
2022-07-28T15:53:05.666Z,32.86
2022-07-28T15:55:39.018Z,32.59
2022-07-28T15:58:09.596Z,32.44
2022-07-28T16:00:40.460Z,32.25
2022-07-28T16:03:11.669Z,31.95
2022-07-28T16:05:44.166Z,31.79
2022-07-28T16:08:14.425Z,31.68
2022-07-28T16:10:47.674Z,31.53
2022-07-28T16:13:22.529Z,31.39
2022-07-28T16:15:58.860Z,31.20
2022-07-28T16:18:29.134Z,31.08
2022-07-28T16:20:59.357Z,31.06
2022-07-28T16:23:29.819Z,31.07
2022-07-28T16:26:03.029Z,30.97
2022-07-28T16:28:34.342Z,30.86
2022-07-28T16:31:04.781Z,30.80
2022-07-28T16:33:35.635Z,30.60
2022-07-28T16:36:07.572Z,30.54
2022-07-28T16:38:38.004Z,30.50
2022-07-28T16:41:11.556Z,30.40
2022-07-28T16:43:46.769Z,30.33
2022-07-28T16:46:17.207Z,30.29
2022-07-28T16:48:47.539Z,30.20
2022-07-28T16:51:17.718Z,30.15
2022-07-28T16:53:51.997Z,30.08
2022-07-28T16:56:24.898Z,30.04
2022-07-28T16:58:55.088Z,30.00
2022-07-28T17:01:25.288Z,29.97
2022-07-28T17:03:55.578Z,29.89
2022-07-28T17:06:25.848Z,29.84
2022-07-28T17:08:56.058Z,29.82
2022-07-28T17:11:28.917Z,29.76
2022-07-28T17:13:59.062Z,29.63
2022-07-28T17:16:29.044Z,29.53
2022-07-28T17:18:59.665Z,29.40
2022-07-28T17:21:29.860Z,29.29
2022-07-28T17:24:00.102Z,29.14
2022-07-28T17:29:25.363Z,28.96
2022-07-28T17:31:55.487Z,28.88
2022-07-28T17:34:25.420Z,28.81
2022-07-28T17:36:55.720Z,28.75
2022-07-28T17:39:25.962Z,28.73
2022-07-28T17:41:58.519Z,28.64
2022-07-28T17:44:28.772Z,28.58
2022-07-28T17:47:03.808Z,28.55
2022-07-28T17:49:34.086Z,28.52
2022-07-28T17:52:05.074Z,28.46
2022-07-28T17:54:56.085Z,28.40
2022-07-28T17:57:30.592Z,28.31
2022-07-28T18:00:10.455Z,28.25
2022-07-28T18:02:42.325Z,28.08
2022-07-28T18:05:13.687Z,28.05
2022-07-28T18:07:50.241Z,27.98
2022-07-28T18:10:25.087Z,27.88
2022-07-28T18:13:00.216Z,27.79
2022-07-28T18:15:32.485Z,27.76
2022-07-28T18:18:02.714Z,27.67
2022-07-28T18:20:36.128Z,27.56
2022-07-28T18:23:07.013Z,27.45
2022-07-28T18:25:43.473Z,27.34
2022-07-28T18:28:19.452Z,27.26
2022-07-28T18:30:50.581Z,27.14
2022-07-28T18:33:23.354Z,27.04
2022-07-28T18:35:53.644Z,26.97
2022-07-28T18:38:23.866Z,26.87
2022-07-28T18:40:54.099Z,26.78
2022-07-28T18:43:26.684Z,26.66
2022-07-28T18:45:56.996Z,26.60
2022-07-28T18:48:27.352Z,26.54
2022-07-28T18:50:58.678Z,26.48
2022-07-28T18:53:29.476Z,26.43
2022-07-28T18:56:01.825Z,26.40
2022-07-28T18:58:34.666Z,26.33
2022-07-28T19:01:04.903Z,26.27
2022-07-28T19:03:40.758Z,26.22
2022-07-28T19:06:11.200Z,26.11
2022-07-28T19:08:41.171Z,26.06
2022-07-28T19:11:11.480Z,25.99
2022-07-28T19:13:44.457Z,25.94
2022-07-28T19:16:14.785Z,25.90
2022-07-28T19:18:44.958Z,25.81
2022-07-28T19:21:17.024Z,25.68
2022-07-28T19:23:48.540Z,25.66
2022-07-28T19:26:18.823Z,25.63
2022-07-28T19:28:51.652Z,25.60
2022-07-28T19:31:21.970Z,25.54
2022-07-28T19:33:52.332Z,25.50
2022-07-28T19:36:22.630Z,25.44
2022-07-28T19:38:52.902Z,25.39
2022-07-28T19:41:23.320Z,25.33
2022-07-28T19:43:56.166Z,25.25
2022-07-28T19:46:26.662Z,25.17
2022-07-28T19:48:57.469Z,25.13
2022-07-28T19:51:28.693Z,25.06
2022-07-28T19:53:59.711Z,24.99
2022-07-28T19:56:31.559Z,24.95
2022-07-28T19:59:04.732Z,24.88
2022-07-28T20:01:34.991Z,24.78
2022-07-28T20:04:05.617Z,24.71
2022-07-28T20:06:36.591Z,24.67
2022-07-28T20:09:08.084Z,24.59
2022-07-28T20:11:39.151Z,24.54
2022-07-28T20:14:12.267Z,24.46
2022-07-28T20:16:42.879Z,24.39
2022-07-28T20:19:16.782Z,24.32
2022-07-28T20:21:47.378Z,24.32
2022-07-28T20:24:19.984Z,24.29
2022-07-28T20:26:50.202Z,24.19
2022-07-28T20:29:23.083Z,24.11
2022-07-28T20:31:53.277Z,24.02
2022-07-28T20:34:23.509Z,23.95
2022-07-28T20:36:55.266Z,23.90
2022-07-28T20:39:43.893Z,23.87
2022-07-28T20:42:15.524Z,23.80
2022-07-28T20:44:48.150Z,23.72
2022-07-28T20:47:18.403Z,23.67
2022-07-28T20:49:48.581Z,23.62
2022-07-28T20:52:18.821Z,23.59
2022-07-28T20:54:53.805Z,23.50
2022-07-28T20:57:24.700Z,23.48
2022-07-28T20:59:57.791Z,23.47
2022-07-28T21:02:28.178Z,23.42
2022-07-28T21:04:58.495Z,23.36
2022-07-28T21:08:05.411Z,23.34
2022-07-28T21:10:19.038Z,23.29
2022-07-28T21:12:49.937Z,23.23
2022-07-28T21:15:23.969Z,23.18
2022-07-28T21:17:57.255Z,23.15
2022-07-28T21:20:28.202Z,23.08
2022-07-28T21:22:58.511Z,23.05
2022-07-28T21:25:28.671Z,23.02
2022-07-28T21:28:11.295Z,23.00
2022-07-28T21:30:44.137Z,22.96
2022-07-28T21:33:22.630Z,22.95
2022-07-28T21:35:53.316Z,22.92
2022-07-28T21:38:23.646Z,22.93
2022-07-28T21:40:53.790Z,22.87
2022-07-28T21:43:24.046Z,22.80
2022-07-28T21:45:56.884Z,22.83
2022-07-28T21:48:27.074Z,22.82
2022-07-28T21:50:58.163Z,22.77
2022-07-28T21:53:28.788Z,22.70
2022-07-28T21:55:58.724Z,22.68
2022-07-28T21:58:28.844Z,22.69
2022-07-28T22:01:02.884Z,22.71
2022-07-28T22:03:33.331Z,22.74
2022-07-28T22:06:03.936Z,22.71
2022-07-28T22:08:34.561Z,22.74
2022-07-28T22:11:04.960Z,22.76
2022-07-28T22:13:35.721Z,22.77
2022-07-28T22:16:08.898Z,22.75
2022-07-28T22:18:39.086Z,22.71
2022-07-28T22:21:09.534Z,22.68
2022-07-28T22:23:40.078Z,22.69
2022-07-28T22:26:10.369Z,22.65
2022-07-28T22:28:40.630Z,22.61
2022-07-28T22:31:13.527Z,22.55
2022-07-28T22:33:43.827Z,22.51
2022-07-28T22:36:14.237Z,22.50
2022-07-28T22:38:44.483Z,22.40
2022-07-28T22:41:14.751Z,22.39
2022-07-28T22:43:44.946Z,22.39
2022-07-28T22:46:17.839Z,22.37
2022-07-28T22:49:04.047Z,22.29
2022-07-28T22:51:34.908Z,22.26
2022-07-28T22:54:05.057Z,22.24
2022-07-28T22:56:37.273Z,22.21
2022-07-28T22:59:08.213Z,22.17
2022-07-28T23:01:41.064Z,22.15
2022-07-28T23:04:11.234Z,22.15
2022-07-28T23:06:44.842Z,22.15
2022-07-28T23:09:15.224Z,22.14
2022-07-28T23:11:55.628Z,22.16
2022-07-28T23:14:26.674Z,22.15
2022-07-28T23:16:59.608Z,22.11
2022-07-28T23:19:29.862Z,21.98
2022-07-28T23:22:00.452Z,21.88
2022-07-28T23:24:30.648Z,21.79
2022-07-28T23:27:00.862Z,21.82
2022-07-28T23:29:31.002Z,21.88
2022-07-28T23:32:04.127Z,21.91
2022-07-28T23:34:34.305Z,21.91
2022-07-28T23:37:04.777Z,21.87
2022-07-28T23:39:34.963Z,21.85
2022-07-28T23:42:05.810Z,21.83
2022-07-28T23:44:36.045Z,21.80
2022-07-28T23:47:09.303Z,21.78
2022-07-28T23:49:39.541Z,21.74
2022-07-28T23:52:09.730Z,21.68
2022-07-28T23:54:40.322Z,21.62
2022-07-28T23:57:10.261Z,21.56
2022-07-28T23:59:40.491Z,21.58
